Time;durP1;ratioP1;P1;durP2;ratioP2;P2;SDS_P1;SDS_P2;PMS_P1;PMS_P2;Temp;Humidity;BMP_temperature;BMP_pressure;BME280_temperature;BME280_humidity;BME280_pressure;Samples;Min_cycle;Max_cycle;Signal;HPM_P1;HPM_P2
2022/03/24 00:00:08;;;;;;;39.20;26.50;;;7.30;1.00;;;;;;5048446;28;20855;-65
2022/03/24 00:02:41;;;;;;;42.80;27.53;;;7.40;99.90;;;;;;5059852;28;20187;-65
2022/03/24 00:05:08;;;;;;;35.73;25.93;;;7.30;99.90;;;;;;5060893;28;20238;-65
2022/03/24 00:07:35;;;;;;;36.77;26.80;;;7.30;99.90;;;;;;5057354;28;20199;-66
2022/03/24 00:10:04;;;;;;;40.93;27.17;;;7.30;1.00;;;;;;5058488;28;20282;-63
2022/03/24 00:12:32;;;;;;;39.87;26.97;;;7.30;1.00;;;;;;5060664;28;20559;-64
2022/03/24 00:15:01;;;;;;;35.47;24.93;;;7.30;1.00;;;;;;5050152;28;20563;-67
2022/03/24 00:17:31;;;;;;;33.33;24.73;;;7.30;1.00;;;;;;5059641;28;20195;-65
2022/03/24 00:19:58;;;;;;;36.80;26.37;;;7.20;1.00;;;;;;5060334;28;20260;-64
2022/03/24 00:22:25;;;;;;;32.43;24.90;;;7.10;1.00;;;;;;5059016;28;20302;-64
2022/03/24 00:24:52;;;;;;;39.60;25.90;;;7.10;1.00;;;;;;5048717;28;20243;-63
2022/03/24 00:27:19;;;;;;;34.87;24.77;;;7.00;1.00;;;;;;5060461;28;20621;-64
2022/03/24 00:29:46;;;;;;;38.43;25.77;;;6.90;1.00;;;;;;5041955;28;20632;-65
2022/03/24 00:32:13;;;;;;;35.30;25.93;;;6.90;1.00;;;;;;5068119;28;20634;-66
2022/03/24 00:34:40;;;;;;;35.80;26.07;;;6.90;1.00;;;;;;5059206;28;20213;-65
2022/03/24 00:37:09;;;;;;;38.63;26.70;;;6.90;1.00;;;;;;5049093;28;20683;-65
2022/03/24 00:39:40;;;;;;;40.30;25.57;;;6.80;1.00;;;;;;5060762;28;20187;-67
2022/03/24 00:42:10;;;;;;;40.73;25.83;;;6.80;1.00;;;;;;5060494;28;20191;-65
2022/03/24 00:44:42;;;;;;;35.50;24.37;;;6.60;1.00;;;;;;5056402;28;20260;-64
2022/03/24 00:47:13;;;;;;;37.70;24.50;;;6.60;1.00;;;;;;5057657;28;20285;-64
2022/03/24 00:49:41;;;;;;;37.43;24.77;;;6.60;1.00;;;;;;5059545;28;20203;-64
2022/03/24 00:52:10;;;;;;;36.03;25.50;;;6.60;1.00;;;;;;5046309;28;20219;-64
2022/03/24 00:54:40;;;;;;;37.73;26.07;;;6.60;1.00;;;;;;5070309;28;20290;-64
2022/03/24 00:57:09;;;;;;;41.13;26.33;;;6.50;1.00;;;;;;5062253;28;20260;-64
2022/03/24 00:59:37;;;;;;;33.30;24.47;;;6.40;1.00;;;;;;5081074;28;20580;-64
2022/03/24 01:02:06;;;;;;;36.70;26.30;;;6.40;1.00;;;;;;5053442;28;20211;-63
2022/03/24 01:04:34;;;;;;;35.10;24.47;;;6.40;1.00;;;;;;5062992;28;20234;-66
2022/03/24 01:07:01;;;;;;;39.10;25.30;;;6.40;1.00;;;;;;5053205;28;20199;-65
2022/03/24 01:09:30;;;;;;;39.63;26.37;;;6.30;1.00;;;;;;5061641;28;20202;-64
2022/03/24 01:12:02;;;;;;;37.60;27.07;;;6.30;1.00;;;;;;5046734;28;20959;-64
2022/03/24 01:14:38;;;;;;;35.80;25.10;;;6.20;1.00;;;;;;5064659;28;20191;-65
2022/03/24 01:17:07;;;;;;;37.03;25.70;;;6.20;1.00;;;;;;5061457;28;20203;-64
2022/03/24 01:19:42;;;;;;;36.93;25.90;;;6.10;1.00;;;;;;5061509;28;20264;-65
2022/03/24 01:22:08;;;;;;;34.53;25.77;;;6.10;1.00;;;;;;5035210;28;21676;-66
2022/03/24 01:24:38;;;;;;;36.63;26.53;;;6.10;1.00;;;;;;5050901;28;20230;-65
2022/03/24 01:27:10;;;;;;;38.23;25.33;;;6.10;1.00;;;;;;5040286;28;20670;-65
2022/03/24 01:29:37;;;;;;;38.60;27.10;;;6.20;1.00;;;;;;5053787;28;20199;-65
2022/03/24 01:32:05;;;;;;;40.73;27.00;;;6.10;1.00;;;;;;5038520;28;20322;-67
2022/03/24 01:34:32;;;;;;;37.97;26.60;;;6.10;1.00;;;;;;5034218;28;20231;-65
2022/03/24 01:37:03;;;;;;;40.97;26.30;;;6.10;1.00;;;;;;5036176;28;20697;-64
2022/03/24 01:39:30;;;;;;;40.80;27.03;;;6.00;1.00;;;;;;5050813;28;20283;-65
2022/03/24 01:41:57;;;;;;;36.67;26.73;;;5.90;1.00;;;;;;5038202;28;20196;-64
2022/03/24 01:44:27;;;;;;;37.10;25.90;;;5.80;1.00;;;;;;5041404;28;20242;-64
2022/03/24 01:47:02;;;;;;;36.00;25.07;;;5.80;1.00;;;;;;5050893;28;21941;-64
2022/03/24 01:49:31;;;;;;;39.27;26.03;;;5.80;1.00;;;;;;5051534;28;20221;-64
2022/03/24 01:51:58;;;;;;;39.30;27.53;;;5.70;1.00;;;;;;5050171;28;20264;-64
2022/03/24 01:54:30;;;;;;;41.50;26.93;;;5.50;1.00;;;;;;5033579;28;20226;-63
2022/03/24 01:56:59;;;;;;;39.07;25.13;;;5.40;1.00;;;;;;5038849;28;20831;-64
2022/03/24 01:59:29;;;;;;;42.27;27.30;;;5.40;1.00;;;;;;5047650;28;20211;-64
2022/03/24 02:01:57;;;;;;;38.07;26.87;;;5.40;1.00;;;;;;5034522;28;20553;-64
2022/03/24 02:04:24;;;;;;;42.20;27.57;;;5.40;1.00;;;;;;5049073;28;20226;-64
2022/03/24 02:06:56;;;;;;;36.43;24.40;;;5.40;1.00;;;;;;5048793;28;20241;-64
2022/03/24 02:09:24;;;;;;;38.47;27.20;;;5.40;1.00;;;;;;5052505;28;20265;-64
2022/03/24 02:11:51;;;;;;;41.63;27.50;;;5.00;38.30;;;;;;5067671;28;20230;-64
2022/03/24 02:14:18;;;;;;;33.93;24.20;;;4.90;84.30;;;;;;5046130;28;21276;-64
2022/03/24 02:16:49;;;;;;;34.17;23.13;;;4.90;99.90;;;;;;5053826;28;20203;-65
2022/03/24 02:19:22;;;;;;;32.50;23.27;;;5.00;99.90;;;;;;5047194;28;20307;-65
2022/03/24 02:21:51;;;;;;;39.47;25.90;;;5.00;99.90;;;;;;5052699;28;20218;-65
2022/03/24 02:24:22;;;;;;;34.73;24.73;;;5.00;90.30;;;;;;5034979;28;20215;-65
2022/03/24 02:26:51;;;;;;;36.30;24.03;;;5.00;78.90;;;;;;5052632;28;20329;-65
2022/03/24 02:29:19;;;;;;;36.97;25.57;;;4.90;99.90;;;;;;5050826;28;20194;-64
2022/03/24 02:31:48;;;;;;;39.43;25.60;;;4.70;99.90;;;;;;5050414;28;20695;-65
2022/03/24 02:34:40;;;;;;;38.87;25.47;;;4.80;99.90;;;;;;5035768;28;20794;-65
2022/03/24 02:37:13;;;;;;;38.67;26.00;;;4.80;99.90;;;;;;5048381;28;20187;-65
2022/03/24 02:39:42;;;;;;;39.60;26.40;;;4.90;99.90;;;;;;5051067;28;20603;-65
2022/03/24 02:42:14;;;;;;;40.17;27.63;;;4.90;99.90;;;;;;5049047;28;20758;-66
2022/03/24 02:44:47;;;;;;;41.27;26.27;;;4.90;99.90;;;;;;5048971;28;20223;-66
2022/03/24 02:47:16;;;;;;;38.93;27.53;;;5.00;99.90;;;;;;5032734;28;20210;-66
2022/03/24 02:49:47;;;;;;;38.73;26.83;;;4.90;87.00;;;;;;5050056;28;20521;-65
2022/03/24 02:52:18;;;;;;;33.53;24.30;;;4.90;54.30;;;;;;5030338;28;20222;-65
2022/03/24 02:54:45;;;;;;;38.80;25.63;;;4.90;47.90;;;;;;5039364;28;20199;-64
2022/03/24 02:57:13;;;;;;;39.20;26.10;;;4.90;55.40;;;;;;5049600;28;21749;-64
2022/03/24 02:59:43;;;;;;;40.20;25.83;;;4.90;43.00;;;;;;5034687;28;20340;-64
2022/03/24 03:02:14;;;;;;;38.93;25.50;;;4.90;71.80;;;;;;5050586;28;20262;-64
2022/03/24 03:04:45;;;;;;;40.67;27.13;;;4.80;99.90;;;;;;5030904;28;20220;-67
2022/03/24 03:07:13;;;;;;;39.80;26.23;;;4.70;99.90;;;;;;5050863;28;20280;-64
2022/03/24 03:09:41;;;;;;;39.43;25.20;;;4.60;99.90;;;;;;5048499;28;20205;-63
2022/03/24 03:12:12;;;;;;;42.70;26.07;;;4.50;99.90;;;;;;5050934;28;20272;-64
2022/03/24 03:14:39;;;;;;;43.33;27.03;;;4.50;99.90;;;;;;5049809;28;20690;-64
2022/03/24 03:17:07;;;;;;;39.57;27.60;;;4.50;99.90;;;;;;5049116;28;20344;-64
2022/03/24 03:19:39;;;;;;;46.17;27.17;;;4.30;99.90;;;;;;5051393;28;20565;-65
2022/03/24 03:22:09;;;;;;;38.60;26.53;;;4.10;99.90;;;;;;5053766;28;20195;-65
2022/03/24 03:24:39;;;;;;;47.63;30.20;;;3.90;1.00;;;;;;5029937;28;20318;-65
2022/03/24 03:27:08;;;;;;;41.60;26.90;;;3.70;1.00;;;;;;5048568;28;20186;-64
2022/03/24 03:29:38;;;;;;;36.03;25.43;;;3.80;1.00;;;;;;5048869;28;20977;-65
2022/03/24 03:32:14;;;;;;;35.63;24.33;;;4.00;1.00;;;;;;5047193;28;20199;-65
2022/03/24 03:34:43;;;;;;;37.47;23.20;;;4.10;1.00;;;;;;5050410;28;20226;-66
2022/03/24 03:37:12;;;;;;;33.73;23.20;;;4.10;1.00;;;;;;5050479;28;20738;-64
2022/03/24 03:39:39;;;;;;;36.83;25.63;;;4.00;1.00;;;;;;5034545;28;21879;-65
2022/03/24 03:42:08;;;;;;;34.03;24.60;;;4.10;1.00;;;;;;5050774;28;20288;-65
2022/03/24 03:44:37;;;;;;;36.50;25.70;;;4.10;1.00;;;;;;5048417;28;20214;-66
2022/03/24 03:47:07;;;;;;;43.27;26.77;;;4.10;1.00;;;;;;5049324;28;20364;-65
2022/03/24 03:49:35;;;;;;;35.23;24.07;;;4.20;1.00;;;;;;5053637;28;20742;-66
2022/03/24 03:52:22;;;;;;;39.93;24.70;;;4.20;1.00;;;;;;5065496;28;20202;-67
2022/03/24 03:54:49;;;;;;;36.73;24.70;;;4.20;1.00;;;;;;5046250;28;20729;-66
2022/03/24 03:57:18;;;;;;;34.80;23.90;;;4.20;1.00;;;;;;5054037;28;20651;-67
2022/03/24 03:59:45;;;;;;;35.83;24.93;;;4.20;99.90;;;;;;5048310;28;20249;-66
2022/03/24 04:02:12;;;;;;;36.63;23.53;;;4.20;1.00;;;;;;5036005;28;20231;-66
2022/03/24 04:04:41;;;;;;;36.20;24.83;;;4.20;1.00;;;;;;5050835;28;20227;-66
2022/03/24 04:07:12;;;;;;;35.70;23.50;;;4.20;1.00;;;;;;5046303;28;20733;-64
2022/03/24 04:09:39;;;;;;;36.57;24.03;;;4.10;1.00;;;;;;5051360;28;20202;-64
2022/03/24 04:12:06;;;;;;;33.63;22.90;;;4.20;1.00;;;;;;5046449;28;21113;-64
2022/03/24 04:14:36;;;;;;;34.27;22.57;;;4.20;1.00;;;;;;5047384;28;20195;-64
2022/03/24 04:17:03;;;;;;;39.00;24.27;;;4.20;99.90;;;;;;5050956;28;20211;-65
2022/03/24 04:19:30;;;;;;;34.40;24.07;;;4.20;99.90;;;;;;5050698;28;20205;-66
2022/03/24 04:21:57;;;;;;;33.00;23.13;;;4.10;99.90;;;;;;5049510;28;20222;-65
2022/03/24 04:24:26;;;;;;;36.37;24.20;;;4.10;99.90;;;;;;5047734;28;20227;-64
2022/03/24 04:26:58;;;;;;;40.73;23.60;;;4.00;99.90;;;;;;5066571;28;20602;-65
2022/03/24 04:29:25;;;;;;;34.63;24.33;;;4.00;99.90;;;;;;5035765;28;20208;-64
2022/03/24 04:31:53;;;;;;;35.60;26.37;;;4.00;99.90;;;;;;5037343;28;20206;-64
2022/03/24 04:34:25;;;;;;;40.83;27.53;;;4.00;99.90;;;;;;5048307;28;20646;-64
2022/03/24 04:36:52;;;;;;;39.53;29.17;;;3.90;99.90;;;;;;5067197;28;20204;-64
2022/03/24 04:39:19;;;;;;;39.93;27.57;;;3.90;99.90;;;;;;5051339;28;20265;-63
2022/03/24 04:41:48;;;;;;;40.03;26.60;;;3.90;99.90;;;;;;5052995;28;20925;-64
2022/03/24 04:44:26;;;;;;;35.40;25.57;;;3.90;99.90;;;;;;5053807;28;20657;-64
2022/03/24 04:46:56;;;;;;;39.37;25.83;;;3.80;99.90;;;;;;5032480;28;20195;-64
2022/03/24 04:49:22;;;;;;;41.77;25.53;;;3.80;99.90;;;;;;5046090;28;20210;-64
2022/03/24 04:51:53;;;;;;;34.37;23.97;;;3.80;99.90;;;;;;5036292;28;20195;-64
2022/03/24 04:54:20;;;;;;;33.77;23.33;;;3.80;99.90;;;;;;5052508;28;20322;-63
2022/03/24 04:56:47;;;;;;;34.73;23.63;;;3.80;99.90;;;;;;5053548;28;20207;-65
2022/03/24 04:59:17;;;;;;;39.37;25.23;;;3.80;99.90;;;;;;5040374;28;21357;-64
2022/03/24 05:01:46;;;;;;;37.27;24.13;;;3.80;99.90;;;;;;5029956;28;20209;-64
2022/03/24 05:04:15;;;;;;;37.10;24.67;;;3.80;99.90;;;;;;5049359;28;21727;-64
2022/03/24 05:06:42;;;;;;;34.17;23.57;;;3.80;99.90;;;;;;5051383;28;20205;-63
2022/03/24 05:09:12;;;;;;;35.00;23.33;;;3.70;99.90;;;;;;5034332;28;20213;-63
2022/03/24 05:11:39;;;;;;;36.83;24.87;;;3.60;1.00;;;;;;5050097;28;20226;-63
2022/03/24 05:14:09;;;;;;;44.80;24.80;;;3.60;1.00;;;;;;5067145;28;20195;-64
2022/03/24 05:16:38;;;;;;;39.20;24.63;;;3.60;1.00;;;;;;5052700;28;20222;-64
2022/03/24 05:19:05;;;;;;;32.90;24.07;;;3.60;1.00;;;;;;5038626;28;20199;-64
2022/03/24 05:21:35;;;;;;;39.63;24.83;;;3.60;1.00;;;;;;5051239;28;20814;-64
2022/03/24 05:24:02;;;;;;;33.30;22.67;;;3.40;1.00;;;;;;5047685;28;20326;-64
2022/03/24 05:26:29;;;;;;;36.13;24.40;;;3.30;1.00;;;;;;5048975;28;20245;-64
2022/03/24 05:28:56;;;;;;;49.70;22.57;;;3.30;1.00;;;;;;5051021;28;20696;-64
2022/03/24 05:31:23;;;;;;;40.63;22.93;;;3.40;1.00;;;;;;5047902;28;22691;-64
2022/03/24 05:33:51;;;;;;;37.00;23.37;;;3.20;1.00;;;;;;5031018;28;20221;-63
2022/03/24 05:36:18;;;;;;;37.87;24.33;;;3.40;1.00;;;;;;5048801;28;20287;-63
2022/03/24 05:38:45;;;;;;;34.77;22.27;;;3.50;1.00;;;;;;5048283;28;20264;-63
2022/03/24 05:41:14;;;;;;;33.93;23.57;;;3.60;1.00;;;;;;5069508;28;20200;-64
2022/03/24 05:44:02;;;;;;;35.60;23.80;;;3.70;1.00;;;;;;5031893;28;20250;-65
2022/03/24 05:46:36;;;;;;;39.07;23.83;;;3.80;1.00;;;;;;5048230;28;20458;-65
2022/03/24 05:49:06;;;;;;;33.20;23.87;;;3.90;1.00;;;;;;5033149;28;20345;-64
2022/03/24 05:52:03;;;;;;;38.37;24.30;;;3.90;1.00;;;;;;5011685;28;20238;-65
2022/03/24 05:54:32;;;;;;;39.17;25.33;;;4.00;1.00;;;;;;5053377;28;20310;-64
2022/03/24 05:56:59;;;;;;;41.63;25.07;;;4.10;1.00;;;;;;5036199;28;20206;-65
2022/03/24 05:59:26;;;;;;;36.60;25.33;;;4.20;99.90;;;;;;5046882;28;20203;-65
2022/03/24 06:01:53;;;;;;;33.83;23.47;;;4.30;99.90;;;;;;5044441;28;20191;-65
2022/03/24 06:04:22;;;;;;;37.20;23.90;;;4.70;99.90;;;;;;5052044;28;20864;-64
2022/03/24 06:06:56;;;;;;;37.33;23.60;;;5.50;99.90;;;;;;5052234;28;20225;-65
2022/03/24 06:09:23;;;;;;;34.37;23.50;;;6.70;1.00;;;;;;5048981;28;20315;-64
2022/03/24 06:11:52;;;;;;;30.03;22.40;;;7.90;1.00;;;;;;5050226;28;20544;-65
2022/03/24 06:14:22;;;;;;;41.63;23.10;;;8.90;99.90;;;;;;5051344;28;20257;-64
2022/03/24 06:16:52;;;;;;;33.33;22.53;;;9.70;99.90;;;;;;5051250;28;20228;-65
2022/03/24 06:19:19;;;;;;;30.30;22.00;;;10.10;1.00;;;;;;5053685;28;20219;-65
2022/03/24 06:21:46;;;;;;;35.50;22.40;;;10.70;1.00;;;;;;5038404;28;20302;-64
2022/03/24 06:24:13;;;;;;;35.13;21.70;;;11.20;1.00;;;;;;5052645;28;20250;-64
2022/03/24 06:26:40;;;;;;;36.90;23.27;;;11.90;1.00;;;;;;5038991;28;20305;-65
2022/03/24 06:29:11;;;;;;;33.30;23.63;;;12.50;1.00;;;;;;5048222;28;20197;-65
2022/03/24 06:31:41;;;;;;;33.03;22.83;;;13.20;1.00;;;;;;5052527;28;20209;-65
2022/03/24 06:34:08;;;;;;;30.87;23.40;;;13.50;1.00;;;;;;5045983;28;20294;-64
2022/03/24 06:36:37;;;;;;;31.53;24.13;;;14.00;1.00;;;;;;5039384;28;20203;-64
2022/03/24 06:39:04;;;;;;;31.93;23.47;;;14.60;1.00;;;;;;5050476;28;20199;-64
2022/03/24 06:41:31;;;;;;;29.13;23.07;;;15.10;1.00;;;;;;5047186;28;20191;-64
2022/03/24 06:43:59;;;;;;;30.10;23.70;;;15.50;99.90;;;;;;5052107;28;20924;-65
2022/03/24 06:46:29;;;;;;;29.67;24.07;;;15.90;99.90;;;;;;5052149;28;20219;-66
2022/03/24 06:49:00;;;;;;;28.97;24.80;;;15.20;99.90;;;;;;5035160;28;20650;-65
2022/03/24 06:51:27;;;;;;;33.17;24.50;;;13.90;1.00;;;;;;5056028;28;20678;-64
2022/03/24 06:53:54;;;;;;;32.93;24.17;;;13.70;1.00;;;;;;5046259;28;20199;-65
2022/03/24 06:56:23;;;;;;;33.13;24.23;;;14.60;1.00;;;;;;5052881;28;20752;-65
2022/03/24 06:58:52;;;;;;;35.40;25.00;;;15.50;99.90;;;;;;5051761;28;20191;-65
2022/03/24 07:01:22;;;;;;;28.70;24.13;;;15.70;99.90;;;;;;5035946;28;20218;-66
2022/03/24 07:03:51;;;;;;;34.20;24.80;;;15.40;99.90;;;;;;5052841;28;20290;-64
2022/03/24 07:06:18;;;;;;;35.20;24.52;;;14.80;99.90;;;;;;5054291;28;20264;-65
2022/03/24 07:08:45;;;;;;;34.65;25.23;;;16.70;99.90;;;;;;5047363;28;20207;-65
2022/03/24 07:11:13;;;;;;;35.05;25.23;;;18.30;99.90;;;;;;5040241;28;20212;-65
2022/03/24 07:13:40;;;;;;;32.08;23.80;;;19.70;99.90;;;;;;5051984;28;20190;-64
2022/03/24 07:16:09;;;;;;;33.42;22.55;;;21.20;99.90;;;;;;5035497;28;20291;-64
2022/03/24 07:18:36;;;;;;;33.65;24.90;;;22.20;99.90;;;;;;5051976;28;20380;-64
2022/03/24 07:21:03;;;;;;;24.65;21.02;;;22.80;99.90;;;;;;5035342;28;20202;-64
2022/03/24 07:23:30;;;;;;;39.05;25.83;;;23.40;99.90;;;;;;5049081;28;20222;-64
2022/03/24 07:25:57;;;;;;;32.85;27.65;;;23.80;99.90;;;;;;5048340;28;20887;-65
2022/03/24 07:28:24;;;;;;;31.80;26.17;;;23.60;99.90;;;;;;5033704;28;20208;-65
2022/03/24 07:30:53;;;;;;;30.45;26.88;;;23.70;99.90;;;;;;5035093;28;20191;-64
2022/03/24 07:33:23;;;;;;;36.55;28.42;;;24.10;99.90;;;;;;5052686;28;20190;-65
2022/03/24 07:35:52;;;;;;;33.97;30.15;;;24.00;99.90;;;;;;5034777;28;20693;-64
2022/03/24 07:38:19;;;;;;;33.30;25.75;;;24.10;99.90;;;;;;5034335;28;21727;-63
2022/03/24 07:40:55;;;;;;;33.65;25.85;;;25.00;99.90;;;;;;5050350;28;22688;-66
2022/03/24 07:43:22;;;;;;;35.15;26.42;;;24.40;99.90;;;;;;5050325;28;20343;-66
2022/03/24 07:45:53;;;;;;;29.70;25.35;;;24.40;99.90;;;;;;5052743;28;20222;-65
2022/03/24 07:48:31;;;;;;;34.65;25.58;;;23.90;99.90;;;;;;5055554;28;20720;-65
2022/03/24 07:51:00;;;;;;;34.35;26.40;;;24.60;99.90;;;;;;5050704;28;20191;-65
2022/03/24 07:53:41;;;;;;;27.65;23.92;;;26.10;99.90;;;;;;5052071;28;20258;-63
2022/03/24 07:56:08;;;;;;;34.58;27.15;;;26.70;99.90;;;;;;5035965;28;20304;-66
2022/03/24 07:58:38;;;;;;;33.47;28.25;;;22.40;99.90;;;;;;5031296;28;20203;-64
2022/03/24 08:01:10;;;;;;;33.63;26.45;;;20.80;99.90;;;;;;5051968;28;20254;-65
2022/03/24 08:03:38;;;;;;;36.55;24.73;;;19.50;99.90;;;;;;5047790;28;20191;-65
2022/03/24 08:06:05;;;;;;;31.52;25.33;;;22.30;99.90;;;;;;5053136;28;20246;-64
2022/03/24 08:08:34;;;;;;;36.72;27.10;;;24.20;99.90;;;;;;5051321;28;20226;-66
2022/03/24 08:11:01;;;;;;;36.20;25.95;;;23.10;99.90;;;;;;5048277;28;20232;-65
2022/03/24 08:13:28;;;;;;;35.10;27.60;;;22.40;99.90;;;;;;5038920;28;20712;-67
2022/03/24 08:15:57;;;;;;;30.05;25.92;;;21.30;99.90;;;;;;5048832;28;20708;-66
2022/03/24 08:18:24;;;;;;;32.65;25.98;;;21.10;99.90;;;;;;5049706;28;20203;-65
2022/03/24 08:20:52;;;;;;;35.85;26.73;;;24.00;99.90;;;;;;5069442;28;20720;-67
2022/03/24 08:23:19;;;;;;;35.30;26.77;;;25.30;99.90;;;;;;5050442;28;20400;-64
2022/03/24 08:25:46;;;;;;;38.53;26.77;;;25.50;99.90;;;;;;5035990;28;20219;-65
2022/03/24 08:28:13;;;;;;;34.90;27.25;;;25.00;99.90;;;;;;5053656;28;20664;-64
2022/03/24 08:30:41;;;;;;;34.13;26.98;;;27.90;99.90;;;;;;5050414;28;20199;-65
2022/03/24 08:33:11;;;;;;;32.80;27.00;;;28.00;99.90;;;;;;5035862;28;20302;-64
2022/03/24 08:35:43;;;;;;;34.22;27.73;;;24.70;99.90;;;;;;5050688;28;20194;-64
2022/03/24 08:38:13;;;;;;;31.40;27.52;;;28.50;99.90;;;;;;5050046;28;20206;-64
2022/03/24 08:40:42;;;;;;;31.05;26.83;;;25.00;99.90;;;;;;5053676;28;20199;-64
2022/03/24 08:43:09;;;;;;;32.05;27.60;;;24.70;99.90;;;;;;5053222;28;20257;-64
2022/03/24 08:45:37;;;;;;;33.42;27.23;;;23.90;99.90;;;;;;5068507;28;20670;-65
2022/03/24 08:48:06;;;;;;;38.28;27.77;;;26.90;99.90;;;;;;5052292;28;20198;-65
2022/03/24 08:50:34;;;;;;;28.85;25.98;;;26.00;99.90;;;;;;5034959;28;20273;-63
2022/03/24 08:53:03;;;;;;;30.95;27.70;;;28.70;99.90;;;;;;5048261;28;20611;-64
2022/03/24 08:55:31;;;;;;;33.38;27.63;;;27.00;99.90;;;;;;5053349;28;20237;-65
2022/03/24 08:57:58;;;;;;;35.47;26.15;;;27.20;99.90;;;;;;5033943;28;20249;-64
2022/03/24 09:00:26;;;;;;;32.22;26.67;;;28.60;99.90;;;;;;5052712;28;20261;-64
2022/03/24 09:02:55;;;;;;;36.88;27.73;;;31.00;99.90;;;;;;5052847;28;20523;-67
2022/03/24 09:05:26;;;;;;;36.67;27.77;;;26.50;99.90;;;;;;5052432;28;20223;-64
2022/03/24 09:07:53;;;;;;;33.30;27.00;;;29.30;99.90;;;;;;5051154;28;20553;-64
2022/03/24 09:10:20;;;;;;;35.35;27.10;;;31.40;99.90;;;;;;5052539;28;20201;-64
2022/03/24 09:12:47;;;;;;;34.00;27.95;;;30.80;99.90;;;;;;5036308;28;20290;-64
2022/03/24 09:15:17;;;;;;;32.53;27.15;;;30.30;99.90;;;;;;5054312;28;20207;-64
2022/03/24 09:17:45;;;;;;;31.73;25.95;;;31.00;99.90;;;;;;5037603;28;20203;-66
2022/03/24 09:20:14;;;;;;;30.13;26.98;;;33.20;99.90;;;;;;5034918;28;20300;-66
2022/03/24 09:22:43;;;;;;;33.75;28.33;;;33.60;99.90;;;;;;5067638;28;20264;-64
2022/03/24 09:25:12;;;;;;;35.15;27.00;;;33.90;99.90;;;;;;5051563;28;20191;-64
2022/03/24 09:27:45;;;;;;;33.22;26.95;;;34.90;99.90;;;;;;5049792;28;20207;-65
2022/03/24 09:30:18;;;;;;;35.90;27.80;;;35.40;99.90;;;;;;5055041;28;20194;-67
2022/03/24 09:32:47;;;;;;;28.85;25.77;;;31.20;99.90;;;;;;5051805;28;20252;-65
2022/03/24 09:35:17;;;;;;;31.60;26.65;;;34.50;99.90;;;;;;5035751;28;20588;-65
2022/03/24 09:37:44;;;;;;;29.65;26.65;;;34.60;99.90;;;;;;5051217;28;20305;-65
2022/03/24 09:40:14;;;;;;;29.90;26.67;;;34.20;99.90;;;;;;5051937;28;20247;-65
2022/03/24 09:42:43;;;;;;;34.33;27.08;;;32.10;99.90;;;;;;5030733;28;20329;-67
2022/03/24 09:45:14;;;;;;;33.00;27.50;;;35.00;99.90;;;;;;5052013;28;20195;-64
2022/03/24 09:47:41;;;;;;;31.30;27.38;;;34.40;99.90;;;;;;5048731;28;20283;-68
2022/03/24 09:50:10;;;;;;;31.38;26.92;;;34.30;99.90;;;;;;5049654;28;20325;-64
2022/03/24 09:52:37;;;;;;;31.88;28.48;;;34.00;99.90;;;;;;5058793;28;20697;-64
2022/03/24 09:55:08;;;;;;;31.33;28.02;;;30.40;99.90;;;;;;5051912;28;20206;-65
2022/03/24 09:57:42;;;;;;;31.20;28.10;;;28.40;99.90;;;;;;5037267;28;20347;-64
2022/03/24 10:00:29;;;;;;;36.60;28.65;;;31.70;99.90;;;;;;5052321;28;21660;-64
2022/03/24 10:03:12;;;;;;;32.10;28.63;;;27.40;99.90;;;;;;5053313;28;20642;-64
2022/03/24 10:05:55;;;;;;;32.78;27.88;;;29.70;99.90;;;;;;5055538;28;20669;-65
2022/03/24 10:08:22;;;;;;;32.88;27.73;;;27.10;99.90;;;;;;5055110;28;20202;-66
2022/03/24 10:10:55;;;;;;;32.97;27.83;;;30.80;99.90;;;;;;5054167;28;20318;-66
2022/03/24 10:13:49;;;;;;;33.97;27.17;;;31.50;99.90;;;;;;5037761;28;20227;-67
2022/03/24 10:16:43;;;;;;;31.45;27.38;;;29.50;99.90;;;;;;5050404;28;20318;-65
2022/03/24 10:19:16;;;;;;;33.47;28.60;;;32.40;99.90;;;;;;5051616;28;20209;-65
2022/03/24 10:21:49;;;;;;;33.05;28.77;;;27.80;99.90;;;;;;5052261;28;20199;-64
2022/03/24 10:24:20;;;;;;;30.95;27.63;;;27.70;99.90;;;;;;5034320;28;20227;-65
2022/03/24 10:26:51;;;;;;;31.52;27.65;;;31.30;99.90;;;;;;5049447;28;20706;-66
2022/03/24 10:29:25;;;;;;;34.38;27.10;;;32.10;99.90;;;;;;5049375;28;20223;-68
2022/03/24 10:31:52;;;;;;;31.50;28.05;;;35.50;99.90;;;;;;5035212;28;20322;-66
2022/03/24 10:34:36;;;;;;;33.53;29.13;;;27.10;99.90;;;;;;5058663;28;20196;-66
2022/03/24 10:37:12;;;;;;;34.65;28.08;;;28.80;99.90;;;;;;5057067;28;21315;-66
2022/03/24 10:40:05;;;;;;;31.10;27.80;;;29.90;99.90;;;;;;5033676;28;20794;-64
2022/03/24 10:42:42;;;;;;;33.15;28.27;;;32.50;99.90;;;;;;5066376;28;20294;-64
2022/03/24 10:45:14;;;;;;;29.13;25.95;;;33.90;99.90;;;;;;5049210;28;20833;-68
2022/03/24 10:47:58;;;;;;;30.83;27.52;;;35.50;99.90;;;;;;5046863;28;20198;-64
2022/03/24 10:50:33;;;;;;;34.75;28.25;;;34.70;99.90;;;;;;5059519;28;20195;-66
2022/03/24 10:53:04;;;;;;;28.02;24.90;;;34.10;99.90;;;;;;5042180;28;20226;-66
2022/03/24 10:56:04;;;;;;;26.50;23.80;;;33.70;99.90;;;;;;5059341;28;20248;-66
2022/03/24 10:58:51;;;;;;;33.25;28.27;;;35.40;99.90;;;;;;5066617;28;20223;-66
2022/03/24 11:01:26;;;;;;;32.00;27.67;;;32.70;99.90;;;;;;5066759;28;20670;-64
2022/03/24 11:03:56;;;;;;;37.67;29.45;;;32.50;99.90;;;;;;5061981;28;20198;-64
2022/03/24 11:06:31;;;;;;;31.60;28.30;;;28.90;99.90;;;;;;5045875;28;20648;-69
2022/03/24 11:09:02;;;;;;;30.73;27.52;;;29.50;99.90;;;;;;5061401;28;20267;-67
2022/03/24 11:11:32;;;;;;;30.48;27.02;;;30.20;99.90;;;;;;5060940;28;20200;-64
2022/03/24 11:14:02;;;;;;;33.45;28.77;;;29.20;99.90;;;;;;5060737;28;20611;-65
2022/03/24 11:16:31;;;;;;;29.73;26.45;;;28.30;99.90;;;;;;5068562;28;20724;-64
2022/03/24 11:19:00;;;;;;;30.83;27.58;;;29.80;99.90;;;;;;5066821;28;20569;-64
2022/03/24 11:21:34;;;;;;;31.58;28.25;;;30.40;99.90;;;;;;5042930;28;20226;-66
2022/03/24 11:24:01;;;;;;;32.55;28.02;;;28.20;99.90;;;;;;5042076;28;20227;-66
2022/03/24 11:26:29;;;;;;;33.63;29.00;;;27.80;99.90;;;;;;5043534;28;20215;-66
2022/03/24 11:29:03;;;;;;;32.28;28.63;;;27.60;99.90;;;;;;5051576;28;20687;-66
2022/03/24 11:31:33;;;;;;;29.60;26.33;;;27.70;99.90;;;;;;5058652;28;20217;-65
2022/03/24 11:34:08;;;;;;;34.30;28.85;;;27.90;99.90;;;;;;5076467;28;20551;-64
2022/03/24 11:36:34;;;;;;;33.28;27.42;;;27.00;99.90;;;;;;5062240;28;20260;-64
2022/03/24 11:39:08;;;;;;;35.15;28.33;;;27.70;99.90;;;;;;5059061;28;20260;-66
2022/03/24 11:41:39;;;;;;;32.47;28.70;;;28.00;99.90;;;;;;5061571;28;20565;-66
2022/03/24 11:44:14;;;;;;;32.15;28.75;;;28.00;99.90;;;;;;5059396;28;20813;-63
2022/03/24 11:46:49;;;;;;;32.63;28.55;;;27.40;99.90;;;;;;5060147;28;20195;-67
2022/03/24 11:49:20;;;;;;;30.63;27.42;;;28.00;99.90;;;;;;5060740;28;20643;-64
2022/03/24 11:51:49;;;;;;;30.80;27.42;;;28.00;99.90;;;;;;5060464;28;20253;-65
2022/03/24 11:54:33;;;;;;;29.77;26.35;;;28.10;99.90;;;;;;5057469;28;20218;-66
2022/03/24 11:57:22;;;;;;;28.25;23.00;;;27.70;99.90;;;;;;5060860;28;20202;-65
2022/03/24 11:59:50;;;;;;;29.08;24.77;;;29.20;99.90;;;;;;5058820;28;20256;-64
2022/03/24 12:02:19;;;;;;;29.40;26.40;;;28.40;99.90;;;;;;5058307;28;20246;-65
2022/03/24 12:04:56;;;;;;;29.90;26.70;;;26.80;99.90;;;;;;5043168;28;20214;-65
2022/03/24 12:07:25;;;;;;;31.33;27.20;;;26.70;99.90;;;;;;5060720;28;20653;-65
2022/03/24 12:10:04;;;;;;;30.23;26.92;;;26.60;99.90;;;;;;5058952;28;20609;-65
2022/03/24 12:12:31;;;;;;;32.55;28.25;;;26.60;99.90;;;;;;5058188;28;20269;-65
2022/03/24 12:15:16;;;;;;;26.35;23.63;;;25.60;99.90;;;;;;5058946;28;20310;-65
2022/03/24 12:18:03;;;;;;;28.23;25.17;;;25.80;99.90;;;;;;5060850;28;20547;-64
2022/03/24 12:20:39;;;;;;;28.40;24.08;;;26.20;99.90;;;;;;5059655;28;20200;-66
2022/03/24 12:23:06;;;;;;;28.52;25.45;;;26.40;99.90;;;;;;5074926;28;20219;-65
2022/03/24 12:25:36;;;;;;;30.17;26.85;;;26.60;99.90;;;;;;5060587;28;20211;-64
2022/03/24 12:28:13;;;;;;;28.50;25.58;;;27.10;99.90;;;;;;5050375;28;20231;-66
2022/03/24 12:30:43;;;;;;;29.75;26.45;;;26.80;99.90;;;;;;5057047;28;20195;-64
2022/03/24 12:33:15;;;;;;;31.13;26.70;;;25.30;99.90;;;;;;5060284;28;20219;-65
2022/03/24 12:35:53;;;;;;;29.08;26.02;;;24.50;99.90;;;;;;5060472;28;20694;-66
2022/03/24 12:38:21;;;;;;;35.83;28.35;;;23.20;99.90;;;;;;5060481;28;20199;-63
2022/03/24 12:41:06;;;;;;;32.47;28.73;;;23.10;99.90;;;;;;5061021;28;20199;-64
2022/03/24 12:43:47;;;;;;;29.92;25.73;;;22.70;99.90;;;;;;5042555;28;20222;-65
2022/03/24 12:46:25;;;;;;;30.02;25.35;;;22.90;99.90;;;;;;5067572;28;20208;-66
2022/03/24 12:48:57;;;;;;;36.03;28.15;;;23.60;99.90;;;;;;5063443;28;20244;-62
2022/03/24 12:51:31;;;;;;;32.50;27.20;;;22.50;99.90;;;;;;5066537;28;20192;-63